Time;durP1;ratioP1;P1;durP2;ratioP2;P2;SDS_P1;SDS_P2;PMS_P1;PMS_P2;Temp;Humidity;BMP_temperature;BMP_pressure;BME280_temperature;BME280_humidity;BME280_pressure;Samples;Min_cycle;Max_cycle;Signal;HPM_P1;HPM_P2
2023/06/24 00:02:24;;;;;;;8.50;4.20;;;;;;;20.27;100.00;100131.39;105430;1254;60161;-62
2023/06/24 00:04:51;;;;;;;6.60;3.90;;;;;;;20.18;100.00;100132.16;105374;1258;71860;-63
2023/06/24 00:07:21;;;;;;;7.20;4.10;;;;;;;20.10;100.00;100133.77;105098;1257;65594;-63
2023/06/24 00:09:49;;;;;;;7.20;3.80;;;;;;;20.02;100.00;100132.33;105479;1265;71295;-62
2023/06/24 00:12:18;;;;;;;5.20;3.60;;;;;;;19.95;100.00;100133.23;105621;1256;60913;-62
2023/06/24 00:14:46;;;;;;;4.70;3.50;;;;;;;19.86;100.00;100135.27;105545;1253;60080;-62
2023/06/24 00:17:16;;;;;;;5.10;3.20;;;;;;;19.80;100.00;100132.43;105428;1257;73516;-63
2023/06/24 00:19:44;;;;;;;5.40;3.40;;;;;;;19.72;100.00;100127.16;105537;1256;67625;-64
2023/06/24 00:22:11;;;;;;;6.70;3.30;;;;;;;19.66;100.00;100116.70;105516;1257;71427;-63
2023/06/24 00:24:42;;;;;;;4.70;3.20;;;;;;;19.60;100.00;100109.52;105305;1256;60239;-64
2023/06/24 00:27:09;;;;;;;5.30;3.00;;;;;;;19.54;100.00;100108.66;105549;1257;59564;-62
2023/06/24 00:29:36;;;;;;;5.50;3.30;;;;;;;19.50;100.00;100105.76;106010;1254;73113;-67
2023/06/24 00:32:04;;;;;;;5.60;2.80;;;;;;;19.47;100.00;100103.44;105188;1263;67888;-63
2023/06/24 00:34:31;;;;;;;4.90;3.30;;;;;;;19.45;100.00;100107.07;106596;1256;72873;-64
2023/06/24 00:36:58;;;;;;;4.70;3.20;;;;;;;19.44;100.00;100114.15;106051;1256;60387;-63
2023/06/24 00:39:27;;;;;;;6.30;3.60;;;;;;;19.43;100.00;100111.36;105989;1252;60266;-67
2023/06/24 00:41:54;;;;;;;7.70;3.20;;;;;;;19.42;100.00;100107.18;105551;1256;73179;-63
2023/06/24 00:44:21;;;;;;;5.30;3.30;;;;;;;19.42;100.00;100106.86;105388;1254;67202;-62
2023/06/24 00:46:49;;;;;;;5.30;3.00;;;;;;;19.43;100.00;100106.92;105542;1254;72989;-62
2023/06/24 00:49:16;;;;;;;7.10;3.20;;;;;;;19.43;100.00;100104.72;105810;1256;60285;-66
2023/06/24 00:51:50;;;;;;;4.90;3.20;;;;;;;19.46;100.00;100104.73;105854;1253;60987;-62
2023/06/24 00:54:17;;;;;;;6.20;3.10;;;;;;;19.48;100.00;100099.02;105673;1255;72910;-62
2023/06/24 00:56:45;;;;;;;4.70;2.80;;;;;;;19.50;100.00;100094.75;105388;1257;67093;-62
2023/06/24 00:59:15;;;;;;;4.50;3.20;;;;;;;19.51;100.00;100089.83;105788;1256;72672;-67
2023/06/24 01:01:44;;;;;;;7.00;3.20;;;;;;;19.52;100.00;100081.51;105342;1264;59693;-61
2023/06/24 01:04:11;;;;;;;5.50;3.00;;;;;;;19.55;100.00;100075.94;105724;1256;60185;-61
2023/06/24 01:06:43;;;;;;;6.30;3.20;;;;;;;19.56;100.00;100067.55;105399;1254;71665;-61
2023/06/24 01:09:11;;;;;;;5.30;3.20;;;;;;;19.55;100.00;100062.30;105642;1257;67225;-66
2023/06/24 01:11:40;;;;;;;6.80;3.60;;;;;;;19.53;100.00;100058.10;105303;1254;72101;-63
2023/06/24 01:14:07;;;;;;;6.20;3.10;;;;;;;19.50;100.00;100059.06;106130;1254;61073;-63
2023/06/24 01:16:52;;;;;;;6.70;4.00;;;;;;;19.45;100.00;100053.66;105375;1256;60434;-63
2023/06/24 01:19:40;;;;;;;6.60;3.40;;;;;;;19.41;100.00;100057.89;105515;1254;74962;-62
2023/06/24 01:22:26;;;;;;;6.80;3.20;;;;;;;19.38;100.00;100054.85;105482;1253;67000;-62
2023/06/24 01:25:22;;;;;;;5.70;3.20;;;;;;;19.36;100.00;100053.19;105755;1257;73869;-62
2023/06/24 01:28:15;;;;;;;7.20;3.50;;;;;;;19.35;100.00;100053.17;105283;1260;60543;-66
2023/06/24 01:30:54;;;;;;;5.00;3.30;;;;;;;19.34;100.00;100058.02;105191;1257;60582;-63
2023/06/24 01:33:25;;;;;;;7.50;3.30;;;;;;;19.32;100.00;100064.04;105411;1254;72669;-63
2023/06/24 01:35:52;;;;;;;7.50;3.80;;;;;;;19.31;100.00;100062.31;105984;1254;67334;-64
2023/06/24 01:38:23;;;;;;;5.20;2.70;;;;;;;19.31;100.00;100061.14;105116;1254;72619;-63
2023/06/24 01:40:50;;;;;;;5.80;3.40;;;;;;;19.30;100.00;100057.96;105464;1255;60399;-62
2023/06/24 01:43:18;;;;;;;5.80;3.30;;;;;;;19.28;100.00;100055.24;104998;1256;60483;-62
2023/06/24 01:45:48;;;;;;;6.00;3.40;;;;;;;19.26;100.00;100052.58;105597;1254;74162;-65
2023/06/24 01:48:16;;;;;;;4.80;3.10;;;;;;;19.25;100.00;100051.31;105448;1254;67900;-61
2023/06/24 01:51:05;;;;;;;5.20;3.70;;;;;;;19.25;100.00;100057.61;105360;1256;72686;-61
2023/06/24 01:53:34;;;;;;;5.60;3.00;;;;;;;19.25;100.00;100055.22;105469;1254;61926;-64
2023/06/24 01:56:01;;;;;;;7.50;3.50;;;;;;;19.24;100.00;100055.71;105769;1254;60495;-60
2023/06/24 01:58:29;;;;;;;4.80;3.10;;;;;;;19.23;100.00;100057.23;105597;1257;74622;-61
2023/06/24 02:00:57;;;;;;;7.90;3.70;;;;;;;19.23;100.00;100052.12;105587;1255;67134;-61
2023/06/24 02:03:24;;;;;;;6.60;3.90;;;;;;;19.22;100.00;100048.63;105646;1255;71391;-62
2023/06/24 02:05:52;;;;;;;6.10;3.20;;;;;;;19.22;100.00;100049.58;105406;1257;60431;-61
2023/06/24 02:08:20;;;;;;;7.00;2.80;;;;;;;19.26;100.00;100050.72;105334;1254;60980;-61
2023/06/24 02:10:47;;;;;;;7.10;3.40;;;;;;;19.37;100.00;100042.67;105648;1254;74301;-62
2023/06/24 02:13:14;;;;;;;6.10;3.30;;;;;;;19.55;100.00;100043.05;105429;1254;67708;-66
2023/06/24 02:15:42;;;;;;;6.20;3.00;;;;;;;19.82;100.00;100036.73;105081;1256;74233;-61
2023/06/24 02:18:09;;;;;;;6.00;3.20;;;;;;;20.06;100.00;100035.87;105704;1257;60571;-62
2023/06/24 02:20:38;;;;;;;6.10;2.80;;;;;;;20.19;100.00;100032.60;105775;1251;60386;-65
2023/06/24 02:23:07;;;;;;;5.20;3.40;;;;;;;20.28;100.00;100031.71;105427;1251;72402;-63
2023/06/24 02:25:34;;;;;;;6.10;3.30;;;;;;;20.32;100.00;100032.83;105389;1255;66771;-62
2023/06/24 02:28:03;;;;;;;7.10;3.60;;;;;;;20.38;100.00;100032.23;105730;1257;72455;-61
2023/06/24 02:30:30;;;;;;;11.60;3.90;;;;;;;20.54;100.00;100033.12;105385;1251;60530;-63
2023/06/24 02:32:57;;;;;;;5.20;3.20;;;;;;;20.85;100.00;100032.27;105452;1254;60679;-62
2023/06/24 02:35:27;;;;;;;7.90;3.00;;;;;;;21.24;100.00;100026.04;105368;1255;73634;-66
2023/06/24 02:37:54;;;;;;;6.70;3.20;;;;;;;21.66;100.00;100013.67;105362;1254;67721;-63
2023/06/24 02:40:21;;;;;;;10.30;3.70;;;;;;;22.04;100.00;100016.18;105306;1254;72635;-64
2023/06/24 02:42:48;;;;;;;6.20;2.90;;;;;;;22.38;100.00;100009.09;105328;1265;60502;-63
2023/06/24 02:45:15;;;;;;;4.90;3.30;;;;;;;22.75;100.00;100005.84;105553;1251;60433;-63
2023/06/24 02:47:44;;;;;;;5.90;3.40;;;;;;;23.11;100.00;100009.64;105630;1254;73642;-65
2023/06/24 02:50:11;;;;;;;5.40;3.40;;;;;;;23.49;100.00;100010.53;105442;1254;67200;-62
2023/06/24 02:52:39;;;;;;;6.60;3.60;;;;;;;23.86;100.00;100006.13;105124;1262;73449;-62
2023/06/24 02:55:08;;;;;;;5.60;3.50;;;;;;;24.19;100.00;100006.66;105610;1260;60359;-62
2023/06/24 02:57:41;;;;;;;5.50;3.80;;;;;;;24.50;100.00;100006.36;105340;1253;60495;-62
2023/06/24 03:00:29;;;;;;;4.60;3.80;;;;;;;24.97;100.00;100000.23;105408;1255;73925;-63
2023/06/24 03:03:22;;;;;;;5.60;3.40;;;;;;;25.49;100.00;99996.65;105559;1257;67014;-63
2023/06/24 03:05:53;;;;;;;5.10;3.70;;;;;;;25.95;100.00;99993.54;105379;1254;73359;-62
2023/06/24 03:08:22;;;;;;;5.20;3.70;;;;;;;26.41;100.00;99994.63;105482;1252;60527;-64
2023/06/24 03:10:54;;;;;;;6.60;4.10;;;;;;;26.88;100.00;99990.78;105618;1254;60440;-65
2023/06/24 03:13:23;;;;;;;7.10;3.80;;;;;;;27.32;100.00;99990.48;105507;1257;72756;-66
2023/06/24 03:15:53;;;;;;;;;;;;;;;27.80;100.00;99984.07;105098;1257;67156;-61
2023/06/24 03:18:21;;;;;;;8.00;4.20;;;;;;;28.01;100.00;99977.66;105363;1253;71537;-63
2023/06/24 03:20:48;;;;;;;6.50;4.30;;;;;;;27.79;100.00;99979.36;105241;1260;60963;-62
2023/06/24 03:23:19;;;;;;;7.10;3.90;;;;;;;27.35;100.00;99973.51;105317;1254;60348;-63
2023/06/24 03:25:46;;;;;;;5.00;3.70;;;;;;;26.81;100.00;99974.71;105402;1253;74371;-62
2023/06/24 03:28:14;;;;;;;6.80;4.00;;;;;;;26.36;100.00;99969.87;105204;1253;67114;-62
2023/06/24 03:30:52;;;;;;;7.30;4.10;;;;;;;25.99;100.00;99969.75;105616;1254;71430;-62
2023/06/24 03:33:20;;;;;;;7.00;4.20;;;;;;;25.64;100.00;99972.40;105476;1257;60432;-62
2023/06/24 03:35:47;;;;;;;5.30;4.40;;;;;;;25.33;100.00;99974.83;105250;1254;60432;-61
2023/06/24 03:38:18;;;;;;;6.10;4.10;;;;;;;25.09;100.00;99971.89;105227;1257;74235;-65
2023/06/24 03:40:46;;;;;;;6.20;3.90;;;;;;;24.93;100.00;99971.58;105376;1254;67074;-61
2023/06/24 03:43:14;;;;;;;6.20;3.80;;;;;;;24.78;100.00;99975.36;105584;1256;72724;-66
2023/06/24 03:45:41;;;;;;;6.10;3.90;;;;;;;24.67;100.00;99972.67;105451;1251;60505;-62
2023/06/24 03:48:09;;;;;;;5.30;4.50;;;;;;;24.67;100.00;99970.17;105451;1254;61062;-61
2023/06/24 03:50:36;;;;;;;13.40;4.20;;;;;;;24.64;100.00;99968.02;105908;1251;73730;-65
2023/06/24 03:53:04;;;;;;;6.10;3.60;;;;;;;24.53;100.00;99975.17;105662;1251;67302;-66
2023/06/24 03:55:31;;;;;;;15.60;10.60;;;;;;;24.45;100.00;99986.80;105400;1253;73355;-63
2023/06/24 03:57:58;;;;;;;7.40;4.80;;;;;;;24.65;100.00;99974.55;105363;1254;61577;-65
2023/06/24 04:00:26;;;;;;;5.60;4.40;;;;;;;25.26;100.00;99974.59;105756;1251;60469;-62
2023/06/24 04:02:53;;;;;;;5.90;4.00;;;;;;;25.73;100.00;99965.52;105615;1253;72504;-63
2023/06/24 04:05:21;;;;;;;5.60;4.00;;;;;;;26.28;100.00;99966.23;105046;1255;66932;-62
2023/06/24 04:07:52;;;;;;;6.40;4.10;;;;;;;27.00;100.00;99965.99;105426;1251;72951;-61
2023/06/24 04:10:19;;;;;;;7.60;4.00;;;;;;;27.73;100.00;99960.31;105366;1254;60430;-62
2023/06/24 04:12:46;;;;;;;9.60;4.90;;;;;;;28.47;100.00;99966.52;105136;1254;60457;-66
2023/06/24 04:15:13;;;;;;;6.90;4.40;;;;;;;28.79;100.00;99972.67;105207;1254;73443;-62
2023/06/24 04:17:40;;;;;;;8.80;5.10;;;;;;;28.67;100.00;99975.54;105354;1254;67196;-63
2023/06/24 04:20:08;;;;;;;7.90;4.30;;;;;;;28.27;100.00;99977.88;105293;1253;72501;-63
2023/06/24 04:22:37;;;;;;;6.40;4.60;;;;;;;27.78;100.00;99975.09;105427;1255;60437;-66
2023/06/24 04:25:05;;;;;;;9.00;4.90;;;;;;;27.23;100.00;99981.52;105561;1253;60435;-64
2023/06/24 04:27:33;;;;;;;8.10;4.60;;;;;;;26.61;100.00;99985.05;105344;1253;73627;-62
2023/06/24 04:30:00;;;;;;;6.90;5.00;;;;;;;26.11;100.00;99985.80;105450;1254;67101;-61
2023/06/24 04:32:29;;;;;;;7.40;4.60;;;;;;;25.68;100.00;99988.41;105175;1259;71229;-61
2023/06/24 04:34:58;;;;;;;7.60;5.00;;;;;;;25.34;100.00;99988.68;105582;1253;60964;-62
2023/06/24 04:37:25;;;;;;;7.50;5.40;;;;;;;25.05;100.00;99990.64;105167;1254;60451;-61
2023/06/24 04:39:53;;;;;;;12.60;5.60;;;;;;;24.82;100.00;99995.16;105377;1252;74404;-61
2023/06/24 04:42:20;;;;;;;12.30;6.90;;;;;;;24.71;100.00;99989.47;105521;1253;67250;-65
2023/06/24 04:44:51;;;;;;;10.80;5.40;;;;;;;24.59;100.00;99994.50;105910;1256;73809;-65
2023/06/24 04:47:18;;;;;;;8.40;5.10;;;;;;;24.50;100.00;99995.77;105454;1251;60407;-61
2023/06/24 04:49:45;;;;;;;9.10;4.50;;;;;;;24.54;100.00;99994.13;105619;1252;60511;-61
2023/06/24 04:52:13;;;;;;;6.80;4.50;;;;;;;24.73;100.00;99995.70;105502;1253;72168;-61
2023/06/24 04:54:40;;;;;;;7.30;4.90;;;;;;;24.97;100.00;99995.63;106328;1252;66072;-65
2023/06/24 04:57:09;;;;;;;8.70;6.00;;;;;;;25.13;100.00;99994.71;105356;1253;71435;-62
2023/06/24 04:59:38;;;;;;;9.10;7.80;;;;;;;25.28;100.00;100000.41;105610;1254;60434;-61
2023/06/24 05:02:05;;;;;;;8.50;7.60;;;;;;;25.41;100.00;99998.30;105518;1256;60894;-62
2023/06/24 05:04:34;;;;;;;9.30;7.50;;;;;;;25.79;100.00;99998.24;105466;1251;73875;-65
2023/06/24 05:07:01;;;;;;;7.60;5.70;;;;;;;26.67;100.00;100001.44;105403;1256;65762;-62
2023/06/24 05:09:28;;;;;;;7.80;5.30;;;;;;;27.91;100.00;99995.48;105601;1256;71518;-62
2023/06/24 05:11:55;;;;;;;7.30;5.30;;;;;;;29.16;100.00;99991.04;105483;1255;60440;-62
2023/06/24 05:14:22;;;;;;;6.80;5.10;;;;;;;30.11;100.00;99984.86;105656;1255;60348;-62
2023/06/24 05:16:50;;;;;;;5.90;4.90;;;;;;;30.51;100.00;99994.79;105171;1254;72637;-65
2023/06/24 05:19:17;;;;;;;6.50;4.60;;;;;;;30.66;100.00;100001.48;105496;1254;67350;-64
2023/06/24 05:21:44;;;;;;;5.70;4.40;;;;;;;30.86;100.00;99994.42;105590;1254;72594;-63
2023/06/24 05:24:11;;;;;;;4.90;4.40;;;;;;;31.25;98.24;99991.84;105429;1254;60407;-62
2023/06/24 05:26:38;;;;;;;6.10;4.70;;;;;;;31.81;92.50;99981.47;105529;1254;60342;-63
2023/06/24 05:29:05;;;;;;;6.10;4.70;;;;;;;32.47;87.60;99980.36;105510;1253;64052;-62
2023/06/24 05:31:32;;;;;;;5.90;4.40;;;;;;;33.30;76.20;99979.63;105440;1253;67224;-62
2023/06/24 05:34:00;;;;;;;6.60;4.50;;;;;;;33.91;65.00;99978.91;105461;1255;72737;-63
2023/06/24 05:36:26;;;;;;;6.70;4.50;;;;;;;34.41;62.94;99984.13;105671;1252;60530;-63
2023/06/24 05:38:54;;;;;;;7.90;4.20;;;;;;;34.99;56.24;99982.06;105767;1256;61334;-66
2023/06/24 05:41:21;;;;;;;6.60;4.30;;;;;;;35.31;49.50;99986.86;105163;1253;63823;-62
2023/06/24 05:43:48;;;;;;;8.10;4.60;;;;;;;35.36;48.29;99984.57;105522;1255;60508;-61
2023/06/24 05:46:15;;;;;;;7.90;4.30;;;;;;;35.37;49.47;99983.66;105424;1254;62521;-64
2023/06/24 05:48:42;;;;;;;5.70;4.20;;;;;;;35.50;48.29;99983.16;105386;1253;60506;-66
2023/06/24 05:51:09;;;;;;;7.70;5.00;;;;;;;35.57;46.66;99981.83;105356;1256;60371;-64
2023/06/24 05:53:37;;;;;;;6.30;4.40;;;;;;;35.53;47.52;99980.59;105459;1253;65846;-63
2023/06/24 05:56:04;;;;;;;6.10;4.50;;;;;;;35.58;47.19;99979.21;105435;1254;62200;-63
2023/06/24 05:58:31;;;;;;;7.50;4.40;;;;;;;35.71;47.21;99978.39;105444;1251;72610;-62
2023/06/24 06:01:00;;;;;;;7.10;4.80;;;;;;;35.95;48.83;99979.52;106003;1252;60513;-65
2023/06/24 06:03:27;;;;;;;6.30;4.20;;;;;;;36.30;45.93;99977.08;105496;1253;60423;-62
2023/06/24 06:05:54;;;;;;;7.00;4.40;;;;;;;36.58;45.19;99973.96;105895;1252;64012;-63
2023/06/24 06:08:21;;;;;;;5.40;4.50;;;;;;;36.90;43.36;99970.94;106216;1253;59321;-62
2023/06/24 06:10:49;;;;;;;7.10;4.90;;;;;;;37.16;41.78;99971.14;105467;1250;63998;-65
2023/06/24 06:13:19;;;;;;;5.90;4.30;;;;;;;37.37;42.05;99972.17;105472;1250;60407;-62
2023/06/24 06:15:46;;;;;;;9.10;5.30;;;;;;;37.59;40.59;99969.09;105438;1253;60418;-62
2023/06/24 06:18:13;;;;;;;5.00;4.10;;;;;;;37.67;39.54;99966.36;106109;1253;65168;-62
2023/06/24 06:20:41;;;;;;;6.10;5.10;;;;;;;37.62;40.50;99962.29;105419;1255;60529;-61
2023/06/24 06:23:08;;;;;;;6.50;5.00;;;;;;;37.60;39.70;99956.05;105301;1253;64074;-62
2023/06/24 06:25:37;;;;;;;6.90;4.90;;;;;;;37.55;39.45;99951.65;105482;1256;60876;-62
2023/06/24 06:28:04;;;;;;;6.10;4.40;;;;;;;37.52;40.23;99949.67;105454;1252;60328;-63
2023/06/24 06:30:31;;;;;;;7.60;4.60;;;;;;;37.52;39.63;99942.05;105659;1253;65286;-62
2023/06/24 06:32:59;;;;;;;6.40;5.00;;;;;;;37.68;39.69;99941.73;105741;1253;60445;-64
2023/06/24 06:35:26;;;;;;;5.80;5.20;;;;;;;37.80;38.53;99940.38;105403;1253;65252;-62
2023/06/24 06:37:54;;;;;;;6.50;5.00;;;;;;;37.75;39.16;99942.13;105446;1252;59212;-62
2023/06/24 06:40:23;;;;;;;5.90;4.90;;;;;;;37.78;38.94;99936.23;105567;1253;60556;-62
2023/06/24 06:42:50;;;;;;;8.40;5.60;;;;;;;37.74;39.05;99934.96;105743;1254;65214;-63
2023/06/24 06:45:17;;;;;;;8.80;5.50;;;;;;;37.69;39.70;99936.15;105738;1251;60470;-62
2023/06/24 06:47:45;;;;;;;7.40;5.20;;;;;;;37.75;39.42;99936.77;105847;1251;63469;-64
2023/06/24 06:50:12;;;;;;;7.20;4.80;;;;;;;37.80;39.91;99933.15;105814;1255;60292;-63
2023/06/24 06:52:39;;;;;;;6.30;5.00;;;;;;;37.93;40.50;99930.02;106355;1252;60362;-64
2023/06/24 06:55:07;;;;;;;8.20;5.90;;;;;;;38.10;39.62;99927.59;105852;1252;64343;-64
2023/06/24 06:57:35;;;;;;;10.00;6.10;;;;;;;38.21;39.04;99922.70;105513;1256;60656;-62
2023/06/24 07:00:03;;;;;;;6.20;5.20;;;;;;;38.36;39.03;99923.76;105958;1252;64360;-62
2023/06/24 07:02:31;;;;;;;12.90;6.30;;;;;;;38.50;38.91;99923.54;106074;1253;60431;-62
2023/06/24 07:04:59;;;;;;;7.20;5.40;;;;;;;38.54;37.29;99921.15;105961;1253;60422;-64
2023/06/24 07:07:26;;;;;;;7.60;6.00;;;;;;;38.46;37.76;99925.38;105760;1253;64495;-62
2023/06/24 07:09:53;;;;;;;6.70;4.70;;;;;;;38.33;38.01;99931.98;105799;1252;60528;-62
2023/06/24 07:12:23;;;;;;;6.40;5.80;;;;;;;38.23;39.02;99925.81;105856;1253;62563;-62
2023/06/24 07:14:50;;;;;;;7.10;5.60;;;;;;;38.22;38.93;99921.14;105598;1256;60400;-63
2023/06/24 07:17:17;;;;;;;8.60;5.60;;;;;;;38.16;39.51;99921.58;105764;1256;60359;-62
2023/06/24 07:19:45;;;;;;;6.60;5.30;;;;;;;38.23;39.39;99927.77;105766;1252;65013;-62
2023/06/24 07:22:11;;;;;;;6.20;5.40;;;;;;;38.34;38.70;99927.23;105802;1256;60611;-62
2023/06/24 07:24:39;;;;;;;7.50;5.40;;;;;;;38.32;38.35;99926.21;106330;1256;64082;-63
2023/06/24 07:27:06;;;;;;;6.60;5.50;;;;;;;38.35;39.48;99931.36;105639;1253;60529;-63
2023/06/24 07:29:33;;;;;;;7.60;5.50;;;;;;;38.41;39.24;99934.76;105775;1253;60344;-61
2023/06/24 07:32:00;;;;;;;8.40;6.10;;;;;;;38.43;39.78;99937.35;105865;1253;63846;-62
2023/06/24 07:34:30;;;;;;;7.70;5.70;;;;;;;38.43;41.90;99937.50;105738;1255;60325;-62
2023/06/24 07:36:57;;;;;;;7.70;5.90;;;;;;;38.55;42.83;99933.30;105819;1253;64125;-62
2023/06/24 07:39:25;;;;;;;7.70;5.60;;;;;;;38.69;42.05;99932.82;105880;1256;60365;-63
2023/06/24 07:41:53;;;;;;;8.40;6.20;;;;;;;38.76;41.16;99939.94;105750;1255;60345;-63
2023/06/24 07:44:20;;;;;;;6.60;5.30;;;;;;;38.80;40.29;99936.41;106073;1251;63817;-62
2023/06/24 07:46:48;;;;;;;6.50;5.70;;;;;;;38.80;40.43;99943.80;106036;1252;60912;-64
2023/06/24 07:49:15;;;;;;;6.00;5.30;;;;;;;38.80;40.34;99948.48;106004;1251;63841;-62
2023/06/24 07:51:44;;;;;;;7.70;6.20;;;;;;;38.85;41.07;99946.39;106017;1256;60879;-64
2023/06/24 07:54:11;;;;;;;6.80;6.10;;;;;;;38.97;40.96;99941.09;105760;1253;60429;-63
2023/06/24 07:56:39;;;;;;;8.00;5.30;;;;;;;39.01;39.51;99937.90;106037;1254;65143;-64
2023/06/24 07:59:06;;;;;;;6.50;5.40;;;;;;;38.93;39.35;99939.73;106152;1253;60342;-63
2023/06/24 08:01:33;;;;;;;7.10;6.20;;;;;;;38.87;40.54;99940.02;106105;1253;62806;-64
2023/06/24 08:04:00;;;;;;;8.00;6.00;;;;;;;38.88;41.48;99939.41;105764;1256;61420;-62
2023/06/24 08:06:27;;;;;;;6.80;5.00;;;;;;;38.88;41.19;99943.21;105816;1255;60338;-63
2023/06/24 08:08:54;;;;;;;8.80;5.60;;;;;;;38.90;41.94;99941.21;105832;1256;65227;-64
2023/06/24 08:11:21;;;;;;;7.90;6.10;;;;;;;38.92;41.09;99936.92;106211;1257;60516;-64
2023/06/24 08:13:48;;;;;;;9.30;5.90;;;;;;;38.87;41.65;99929.52;106004;1253;64017;-63
2023/06/24 08:16:17;;;;;;;6.40;5.80;;;;;;;38.93;42.75;99928.06;105694;1257;60614;-63
2023/06/24 08:18:43;;;;;;;7.10;5.20;;;;;;;39.05;42.64;99927.73;105746;1252;60299;-63
2023/06/24 08:21:10;;;;;;;8.20;5.30;;;;;;;39.23;44.54;99925.99;106003;1253;63971;-65
2023/06/24 08:23:37;;;;;;;7.40;5.50;;;;;;;39.50;43.98;99925.60;105442;1253;60362;-63
2023/06/24 08:26:04;;;;;;;7.20;6.00;;;;;;;39.73;41.20;99922.70;105843;1253;64022;-65
2023/06/24 08:28:47;;;;;;;7.40;5.80;;;;;;;39.89;40.30;99918.73;105687;1257;60514;-64
2023/06/24 08:31:15;;;;;;;8.20;5.80;;;;;;;39.89;39.82;99917.63;106031;1252;60346;-63
2023/06/24 08:33:44;;;;;;;7.30;6.20;;;;;;;39.80;39.76;99917.16;105864;1252;65271;-64
2023/06/24 08:36:11;;;;;;;6.80;6.10;;;;;;;39.71;39.47;99914.42;105660;1254;60496;-63
2023/06/24 08:38:38;;;;;;;8.20;6.20;;;;;;;39.58;40.32;99913.38;105770;1254;63939;-63
2023/06/24 08:41:05;;;;;;;13.80;9.90;;;;;;;39.60;42.03;99910.73;105939;1253;60461;-63
2023/06/24 08:43:32;;;;;;;7.80;6.30;;;;;;;39.78;41.46;99912.33;105989;1257;60538;-63
2023/06/24 08:45:59;;;;;;;6.30;5.70;;;;;;;39.84;40.40;99912.80;105870;1253;64047;-61
2023/06/24 08:48:27;;;;;;;6.90;6.00;;;;;;;39.84;40.76;99912.09;105616;1257;66630;-63
2023/06/24 08:50:54;;;;;;;6.10;5.40;;;;;;;40.05;40.83;99913.27;106002;1254;62632;-64
2023/06/24 08:53:22;;;;;;;7.10;6.10;;;;;;;40.22;39.96;99910.30;106000;1257;60402;-63
2023/06/24 08:55:49;;;;;;;7.40;5.90;;;;;;;40.40;40.02;99908.70;106107;1253;60398;-62
2023/06/24 08:58:17;;;;;;;9.00;6.60;;;;;;;40.65;39.75;99905.06;105540;1253;65697;-63
2023/06/24 09:00:44;;;;;;;6.20;5.60;;;;;;;40.85;37.59;99903.11;106148;1252;59882;-64
2023/06/24 09:03:11;;;;;;;7.10;5.80;;;;;;;41.01;37.19;99900.86;105582;1256;62824;-63
2023/06/24 09:05:39;;;;;;;7.30;6.70;;;;;;;41.05;35.84;99904.68;106117;1256;60618;-63
2023/06/24 09:08:06;;;;;;;10.00;7.20;;;;;;;40.94;35.87;99905.34;105964;1253;60467;-63
2023/06/24 09:10:36;;;;;;;6.60;5.90;;;;;;;40.91;36.93;99901.60;106005;1252;65143;-62
2023/06/24 09:13:04;;;;;;;7.40;6.60;;;;;;;40.95;36.86;99896.90;105965;1252;60758;-65
2023/06/24 09:15:32;;;;;;;7.50;6.10;;;;;;;40.92;36.63;99895.98;105832;1256;63995;-62
2023/06/24 09:18:00;;;;;;;6.90;6.20;;;;;;;40.87;37.35;99892.25;105577;1256;367925;-64
2023/06/24 09:20:28;;;;;;;7.20;6.40;;;;;;;40.68;37.31;99890.45;106046;1256;60416;-63
2023/06/24 09:22:59;;;;;;;8.00;6.80;;;;;;;40.30;39.26;99893.66;106526;1253;65383;-64
2023/06/24 09:25:26;;;;;;;7.60;6.50;;;;;;;39.98;40.14;99893.15;106548;1252;60409;-64
2023/06/24 09:27:55;;;;;;;9.30;7.00;;;;;;;39.83;40.84;99888.31;105847;1254;62913;-63
2023/06/24 09:30:23;;;;;;;7.40;6.40;;;;;;;39.78;42.23;99890.18;106185;1253;60520;-63
2023/06/24 09:32:50;;;;;;;6.90;6.00;;;;;;;39.61;44.07;99893.05;105811;1253;60434;-63
2023/06/24 09:35:19;;;;;;;7.50;6.70;;;;;;;39.40;44.03;99890.75;106235;1253;65288;-62
2023/06/24 09:37:51;;;;;;;10.30;6.20;;;;;;;39.16;44.88;99891.54;105844;1253;60453;-64
2023/06/24 09:40:19;;;;;;;10.00;6.70;;;;;;;38.94;44.11;99891.23;106359;1252;64727;-64
2023/06/24 09:42:50;;;;;;;8.40;6.60;;;;;;;38.63;44.27;99889.84;106267;1252;60338;-62
2023/06/24 09:45:25;;;;;;;8.90;7.10;;;;;;;38.19;48.18;99888.23;106417;1253;60575;-63
2023/06/24 09:47:53;;;;;;;8.00;6.50;;;;;;;37.79;53.67;99890.39;105687;1256;65276;-64
2023/06/24 09:50:20;;;;;;;6.80;6.10;;;;;;;37.49;57.21;99889.11;105765;1256;60108;-62
2023/06/24 09:52:48;;;;;;;9.10;7.50;;;;;;;37.27;60.03;99885.84;105708;1255;62804;-62
2023/06/24 09:55:17;;;;;;;8.00;7.20;;;;;;;37.08;63.13;99885.70;105894;1256;60565;-61
2023/06/24 09:57:49;;;;;;;11.10;10.00;;;;;;;36.87;65.65;99883.89;106036;1256;60287;-61
2023/06/24 10:00:18;;;;;;;9.50;8.20;;;;;;;36.87;71.27;99883.27;105940;1256;63853;-62
2023/06/24 10:02:46;;;;;;;7.80;7.00;;;;;;;37.16;69.53;99884.78;105866;1253;60425;-61
2023/06/24 10:05:14;;;;;;;8.70;7.90;;;;;;;37.49;63.00;99886.30;106055;1256;62843;-62
2023/06/24 10:07:41;;;;;;;7.70;6.90;;;;;;;37.78;57.54;99879.35;105807;1252;60459;-63
2023/06/24 10:10:11;;;;;;;8.40;6.90;;;;;;;37.93;57.70;99868.85;105790;1253;60530;-62
2023/06/24 10:12:38;;;;;;;7.30;6.60;;;;;;;37.94;59.62;99870.25;105786;1256;66271;-62
2023/06/24 10:15:05;;;;;;;15.00;13.50;;;;;;;37.83;60.88;99869.45;105924;1256;60460;-62
2023/06/24 10:17:32;;;;;;;8.30;7.50;;;;;;;37.89;62.80;99869.41;105689;1251;62607;-64
2023/06/24 10:20:06;;;;;;;10.40;9.30;;;;;;;38.17;60.00;99869.00;106358;1252;60087;-65
2023/06/24 10:22:33;;;;;;;19.70;17.80;;;;;;;38.56;57.24;99863.10;105541;1256;60336;-64
2023/06/24 10:25:00;;;;;;;10.20;8.80;;;;;;;38.89;51.41;99854.85;105591;1254;65156;-65
2023/06/24 10:27:32;;;;;;;13.90;12.50;;;;;;;39.13;47.99;99846.98;105568;1252;60527;-63
2023/06/24 10:30:03;;;;;;;20.90;18.80;;;;;;;39.16;47.17;99850.64;105590;1253;62806;-63
2023/06/24 10:32:40;;;;;;;7.60;6.90;;;;;;;39.03;47.65;99853.73;105547;1256;60346;-63
2023/06/24 10:35:07;;;;;;;8.20;7.30;;;;;;;38.88;49.07;99855.55;106233;1252;60505;-64
2023/06/24 10:37:34;;;;;;;9.00;7.90;;;;;;;38.74;48.63;99857.42;105709;1253;64949;-66
2023/06/24 10:40:02;;;;;;;8.00;7.30;;;;;;;38.46;49.42;99862.11;105422;1253;60334;-65
2023/06/24 10:42:52;;;;;;;9.80;8.70;;;;;;;37.95;51.18;99868.14;105509;1253;63910;-63
2023/06/24 10:45:20;;;;;;;10.30;8.60;;;;;;;37.42;55.08;99865.48;106200;1252;60336;-65
2023/06/24 10:47:52;;;;;;;7.40;6.70;;;;;;;37.03;60.98;99860.34;105722;1256;60534;-62
2023/06/24 10:50:20;;;;;;;9.00;7.50;;;;;;;36.82;65.57;99852.08;105159;1257;63978;-62
2023/06/24 10:52:48;;;;;;;7.90;6.80;;;;;;;36.80;66.62;99847.23;105537;1255;62015;-62
2023/06/24 10:55:16;;;;;;;10.60;7.40;;;;;;;36.81;63.70;99845.77;106180;1253;62826;-63
2023/06/24 10:57:43;;;;;;;9.40;6.80;;;;;;;36.76;69.71;99846.66;105447;1251;60400;-63
2023/06/24 11:00:11;;;;;;;7.60;6.80;;;;;;;36.77;72.72;99846.74;105555;1255;60397;-64
2023/06/24 11:02:39;;;;;;;8.20;7.20;;;;;;;36.75;73.82;99855.64;105490;1255;65779;-65
2023/06/24 11:05:07;;;;;;;6.50;5.80;;;;;;;36.60;75.17;99860.20;106226;1253;59442;-63
2023/06/24 11:07:36;;;;;;;6.90;6.10;;;;;;;36.32;73.86;99859.95;106281;1250;64056;-64
2023/06/24 11:10:05;;;;;;;7.00;5.60;;;;;;;36.09;71.69;99862.08;106065;1250;60463;-66
2023/06/24 11:12:34;;;;;;;5.90;5.30;;;;;;;35.84;70.97;99869.34;105533;1251;60424;-64
2023/06/24 11:15:05;;;;;;;6.20;5.60;;;;;;;35.63;73.62;99876.14;105513;1253;63917;-65
2023/06/24 11:17:33;;;;;;;7.00;6.30;;;;;;;35.30;79.31;99874.19;105378;1253;60627;-64
2023/06/24 11:20:00;;;;;;;7.00;6.30;;;;;;;34.84;91.20;99883.08;105352;1255;62865;-64
2023/06/24 11:22:27;;;;;;;8.60;6.80;;;;;;;34.48;99.39;99895.83;105246;1256;60444;-64
2023/06/24 11:24:55;;;;;;;7.20;6.50;;;;;;;34.18;100.00;99902.23;105241;1252;60428;-63
2023/06/24 11:27:29;;;;;;;7.80;7.00;;;;;;;33.83;100.00;99897.59;105656;1253;63932;-63